Time,TemperatureF,DewpointF,PressureIn,WindDirection,WindDirectionDegrees,WindSpeedMPH,WindSpeedGustMPH,Humidity,HourlyPrecipIn,Conditions,Clouds,dailyrainin,SolarRadiationWatts/m^2,SoftwareType,DateUTC
2013-04-24 00:00:00,44.4,42.2,30.02,East,98,0.0,0.0,92,0.00,,OVC,0.00,0.00,VWS V14.00,2013-04-24 04:00:00,
2013-04-24 00:01:00,44.4,42.2,30.02,East,98,0.0,0.0,92,0.00,,OVC,0.00,0.00,VWS V14.00,2013-04-24 04:01:00,
2013-04-24 00:02:00,44.5,42.3,30.02,East,98,0.0,0.0,92,0.00,,OVC,0.00,0.00,VWS V14.00,2013-04-24 04:02:00,
2013-04-24 00:07:00,44.7,42.8,30.02,East,98,0.0,1.0,93,0.00,,OVC,0.00,0.00,VWS V14.00,2013-04-24 04:07:00,
2013-04-24 00:12:00,45.0,43.1,30.02,East,98,0.0,1.0,93,0.00,,OVC,0.00,0.00,VWS V14.00,2013-04-24 04:12:00,
2013-04-24 00:15:00,45.1,43.2,30.02,East,98,0.0,1.0,93,0.00,,OVC,0.00,0.00,VWS V14.00,2013-04-24 04:15:00,
2013-04-24 00:18:00,45.3,43.4,30.02,East,98,0.0,1.0,93,0.00,,OVC,0.00,0.00,VWS V14.00,2013-04-24 04:18:00,
2013-04-24 00:23:00,45.4,43.5,30.01,East,98,0.0,1.0,93,0.00,,OVC,0.00,0.00,VWS V14.00,2013-04-24 04:23:00,
2013-04-24 00:28:00,45.3,43.4,30.02,East,98,0.0,1.0,93,0.00,,OVC,0.00,0.00,VWS V14.00,2013-04-24 04:28:00,
2013-04-24 00:30:00,45.3,43.4,30.02,East,98,0.0,1.0,93,0.00,,OVC,0.00,0.00,VWS V14.00,2013-04-24 04:30:00,
2013-04-24 00:33:00,45.3,43.1,30.02,ESE,102,0.0,1.0,92,0.00,,OVC,0.00,0.00,VWS V14.00,2013-04-24 04:33:00,
2013-04-24 00:38:00,45.2,43.0,30.01,ESE,102,0.0,1.0,92,0.00,,OVC,0.00,0.00,VWS V14.00,2013-04-24 04:38:00,
2013-04-24 00:43:00,45.2,43.0,30.01,ESE,102,0.0,0.0,92,0.00,,OVC,0.00,0.00,VWS V14.00,2013-04-24 04:43:00,
2013-04-24 00:45:00,45.2,43.0,30.01,ESE,102,0.0,1.0,92,0.00,,OVC,0.00,0.00,VWS V14.00,2013-04-24 04:45:00,
2013-04-24 00:48:00,45.4,43.5,30.01,ESE,102,0.0,1.0,93,0.00,,OVC,0.00,0.00,VWS V14.00,2013-04-24 04:48:00,
2013-04-24 00:53:00,45.6,43.7,30.01,ESE,102,0.0,1.0,93,0.00,,OVC,0.00,0.00,VWS V14.00,2013-04-24 04:53:00,
2013-04-24 00:58:00,45.9,44.3,30.01,ESE,102,0.0,0.0,94,0.00,,OVC,0.00,0.00,VWS V14.00,2013-04-24 04:58:00,
2013-04-24 01:00:00,45.9,44.3,30.01,ESE,102,0.0,1.0,94,0.00,,OVC,0.00,0.00,VWS V14.00,2013-04-24 05:00:00,
2013-04-24 01:03:00,46.0,44.1,30.01,ESE,102,0.0,0.0,93,0.00,,OVC,0.00,0.00,VWS V14.00,2013-04-24 05:03:00,
2013-04-24 01:08:00,46.4,44.5,30.01,SSW,198,0.0,2.0,93,0.00,,OVC,0.00,0.00,VWS V14.00,2013-04-24 05:08:00,
2013-04-24 01:13:00,46.7,44.8,30.01,SSW,198,0.0,0.0,93,0.00,,OVC,0.00,0.00,VWS V14.00,2013-04-24 05:13:00,
2013-04-24 01:15:00,46.7,45.1,30.01,SSW,198,0.0,2.0,94,0.00,,OVC,0.00,0.00,VWS V14.00,2013-04-24 05:15:00,
2013-04-24 01:19:00,46.7,44.8,30.01,SSW,198,0.0,0.0,93,0.00,,OVC,0.00,0.00,VWS V14.00,2013-04-24 05:19:00,
2013-04-24 01:24:00,46.7,44.8,30.01,SSW,198,0.0,0.0,93,0.00,,OVC,0.00,0.00,VWS V14.00,2013-04-24 05:24:00,
2013-04-24 01:29:00,46.5,44.3,30.01,SSW,198,0.0,0.0,92,0.00,,OVC,0.00,0.00,VWS V14.00,2013-04-24 05:29:00,
2013-04-24 01:30:00,46.6,44.4,30.00,SSW,198,0.0,0.0,92,0.00,,OVC,0.00,0.00,VWS V14.00,2013-04-24 05:30:00,
2013-04-24 01:34:00,46.5,44.3,30.00,SSW,198,0.0,0.0,92,0.00,,OVC,0.00,0.00,VWS V14.00,2013-04-24 05:34:00,
2013-04-24 01:39:00,46.3,44.1,30.00,SSW,198,0.0,0.0,92,0.00,,OVC,0.00,0.00,VWS V14.00,2013-04-24 05:39:00,
2013-04-24 01:44:00,46.2,44.0,30.00,SSW,198,0.0,0.0,92,0.00,,OVC,0.00,0.00,VWS V14.00,2013-04-24 05:44:00,
2013-04-24 01:45:00,46.2,44.0,30.00,SSW,198,0.0,0.0,92,0.00,,OVC,0.00,0.00,VWS V14.00,2013-04-24 05:45:00,
2013-04-24 01:49:00,46.0,43.8,30.00,SSW,198,0.0,0.0,92,0.00,,OVC,0.00,0.00,VWS V14.00,2013-04-24 05:49:00,
2013-04-24 01:54:00,46.0,44.1,30.00,SSW,198,0.0,0.0,93,0.00,,OVC,0.00,0.00,VWS V14.00,2013-04-24 05:54:00,
2013-04-24 01:59:00,45.9,44.0,30.00,SSW,198,0.0,0.0,93,0.00,,OVC,0.00,0.00,VWS V14.00,2013-04-24 05:59:00,
2013-04-24 02:00:00,46.0,44.1,30.00,SSW,198,0.0,0.0,93,0.00,,OVC,0.00,0.00,VWS V14.00,2013-04-24 06:00:00,
2013-04-24 02:04:00,45.7,43.5,30.00,SSW,198,0.0,0.0,92,0.00,,OVC,0.00,0.00,VWS V14.00,2013-04-24 06:04:00,
2013-04-24 02:10:00,45.5,43.3,29.99,SSW,198,0.0,0.0,92,0.00,,OVC,0.00,0.00,VWS V14.00,2013-04-24 06:10:00,
2013-04-24 02:15:00,45.0,42.8,29.99,SSW,198,0.0,0.0,92,0.00,,OVC,0.00,0.00,VWS V14.00,2013-04-24 06:15:00,
2013-04-24 02:20:00,44.5,42.3,29.99,SSW,198,0.0,0.0,92,0.00,,OVC,0.00,0.00,VWS V14.00,2013-04-24 06:20:00,
2013-04-24 02:25:00,44.1,41.9,30.00,SSW,198,0.0,1.0,92,0.00,,OVC,0.00,0.00,VWS V14.00,2013-04-24 06:25:00,
2013-04-24 02:30:00,43.8,41.6,29.99,SSW,198,0.0,0.0,92,0.00,,OVC,0.00,0.00,VWS V14.00,2013-04-24 06:30:00,
2013-04-24 02:35:00,43.6,41.7,30.00,SSW,198,0.0,0.0,93,0.00,,OVC,0.00,0.00,VWS V14.00,2013-04-24 06:35:00,
2013-04-24 02:40:00,43.6,41.7,29.99,SSW,198,0.0,0.0,93,0.00,,OVC,0.00,0.00,VWS V14.00,2013-04-24 06:40:00,
2013-04-24 02:45:00,43.5,41.6,29.99,SSW,198,0.0,0.0,93,0.00,,OVC,0.00,0.00,VWS V14.00,2013-04-24 06:45:00,
2013-04-24 02:50:00,43.6,42.0,29.99,SSW,198,0.0,0.0,94,0.00,,OVC,0.00,0.00,VWS V14.00,2013-04-24 06:50:00,
2013-04-24 02:55:00,43.9,42.3,29.99,SSW,198,0.0,0.0,94,0.00,,OVC,0.00,0.00,VWS V14.00,2013-04-24 06:55:00,
2013-04-24 03:01:00,44.1,42.5,29.99,SSW,198,0.0,0.0,94,0.00,,OVC,0.00,0.00,VWS V14.00,2013-04-24 07:01:00,
2013-04-24 03:06:00,44.2,42.6,29.99,SSW,198,0.0,1.0,94,0.00,,OVC,0.00,0.00,VWS V14.00,2013-04-24 07:06:00,
2013-04-24 03:11:00,44.2,42.6,29.99,SSW,198,0.0,1.0,94,0.00,,OVC,0.00,0.00,VWS V14.00,2013-04-24 07:11:00,
2013-04-24 03:16:00,44.0,42.4,29.99,SSW,198,0.0,0.0,94,0.00,,OVC,0.00,0.00,VWS V14.00,2013-04-24 07:16:00,
2013-04-24 03:21:00,44.0,42.4,29.99,SSW,198,0.0,0.0,94,0.00,,OVC,0.00,0.00,VWS V14.00,2013-04-24 07:21:00,
2013-04-24 03:26:00,43.7,41.8,29.99,SSW,198,0.0,0.0,93,0.00,,OVC,0.00,0.00,VWS V14.00,2013-04-24 07:26:00,
2013-04-24 03:31:00,43.4,41.5,29.99,SSW,198,0.0,0.0,93,0.00,,OVC,0.00,0.00,VWS V14.00,2013-04-24 07:31:00,
2013-04-24 03:36:00,43.3,41.4,29.98,SSW,198,0.0,0.0,93,0.00,,OVC,0.00,0.00,VWS V14.00,2013-04-24 07:36:00,
2013-04-24 03:41:00,43.4,41.8,29.98,SSW,198,0.0,0.0,94,0.00,,OVC,0.00,0.00,VWS V14.00,2013-04-24 07:41:00,
2013-04-24 03:46:00,43.5,41.9,29.98,SSW,198,0.0,0.0,94,0.00,,OVC,0.00,0.00,VWS V14.00,2013-04-24 07:46:00,
2013-04-24 03:51:00,43.6,42.3,29.98,SSW,198,0.0,0.0,95,0.00,,OVC,0.00,0.00,VWS V14.00,2013-04-24 07:51:00,
2013-04-24 03:57:00,43.7,42.4,29.98,SSW,198,0.0,0.0,95,0.00,,OVC,0.00,0.00,VWS V14.00,2013-04-24 07:57:00,
2013-04-24 04:02:00,43.7,42.4,29.98,SSW,198,0.0,0.0,95,0.00,,OVC,0.00,0.00,VWS V14.00,2013-04-24 08:02:00,
2013-04-24 04:07:00,43.8,42.5,29.98,SSW,198,0.0,0.0,95,0.00,,OVC,0.00,0.00,VWS V14.00,2013-04-24 08:07:00,
2013-04-24 04:12:00,43.7,42.1,29.98,SSW,198,0.0,0.0,94,0.00,,OVC,0.00,0.00,VWS V14.00,2013-04-24 08:12:00,
2013-04-24 04:17:00,43.5,41.9,29.98,SSW,198,0.0,0.0,94,0.00,,OVC,0.00,0.00,VWS V14.00,2013-04-24 08:17:00,
2013-04-24 04:22:00,43.2,41.6,29.98,SSW,198,0.0,0.0,94,0.00,,OVC,0.00,0.00,VWS V14.00,2013-04-24 08:22:00,
2013-04-24 04:27:00,43.0,41.4,29.98,SSW,198,0.0,0.0,94,0.00,,OVC,0.00,0.00,VWS V14.00,2013-04-24 08:27:00,
2013-04-24 04:32:00,42.8,41.2,29.98,SSW,198,0.0,0.0,94,0.00,,OVC,0.00,0.00,VWS V14.00,2013-04-24 08:32:00,
2013-04-24 04:37:00,42.6,41.0,29.98,SSW,198,0.0,0.0,94,0.00,,OVC,0.00,0.00,VWS V14.00,2013-04-24 08:37:00,
2013-04-24 04:42:00,42.3,40.7,29.97,SSW,198,0.0,0.0,94,0.00,,OVC,0.00,0.00,VWS V14.00,2013-04-24 08:42:00,
2013-04-24 04:48:00,42.2,40.6,29.97,SSW,198,0.0,0.0,94,0.00,,OVC,0.00,0.00,VWS V14.00,2013-04-24 08:48:00,
2013-04-24 04:53:00,42.4,40.8,29.97,SSW,198,0.0,0.0,94,0.00,,OVC,0.00,0.00,VWS V14.00,2013-04-24 08:53:00,
2013-04-24 04:58:00,42.6,41.3,29.97,SSW,198,0.0,0.0,95,0.00,,OVC,0.00,0.00,VWS V14.00,2013-04-24 08:58:00,
2013-04-24 05:03:00,42.8,41.5,29.97,SSW,198,0.0,0.0,95,0.00,,OVC,0.00,0.00,VWS V14.00,2013-04-24 09:03:00,
2013-04-24 05:08:00,42.9,41.6,29.97,SSW,198,0.0,0.0,95,0.00,,OVC,0.00,0.00,VWS V14.00,2013-04-24 09:08:00,
2013-04-24 05:13:00,43.0,41.7,29.97,SSW,198,0.0,0.0,95,0.00,,OVC,0.00,0.00,VWS V14.00,2013-04-24 09:13:00,
2013-04-24 05:18:00,43.3,42.0,29.98,SSW,198,0.0,0.0,95,0.00,,OVC,0.00,0.00,VWS V14.00,2013-04-24 09:18:00,
2013-04-24 05:23:00,43.6,42.5,29.97,SSW,198,0.0,0.0,96,0.00,,OVC,0.00,0.00,VWS V14.00,2013-04-24 09:23:00,
2013-04-24 05:28:00,43.6,42.3,29.97,SSW,198,0.0,0.0,95,0.00,,OVC,0.00,0.00,VWS V14.00,2013-04-24 09:28:00,
2013-04-24 05:33:00,43.7,42.4,29.97,SSW,198,0.0,0.0,95,0.00,,OVC,0.00,0.00,VWS V14.00,2013-04-24 09:33:00,
2013-04-24 05:38:00,43.8,42.5,29.98,SSW,198,0.0,0.0,95,0.00,,OVC,0.00,0.00,VWS V14.00,2013-04-24 09:38:00,
2013-04-24 05:43:00,43.9,42.6,29.97,SSW,198,0.0,0.0,95,0.00,,OVC,0.00,0.00,VWS V14.00,2013-04-24 09:43:00,
2013-04-24 05:48:00,44.0,42.7,29.98,SSW,198,0.0,1.0,95,0.00,,OVC,0.00,0.00,VWS V14.00,2013-04-24 09:48:00,
2013-04-24 05:54:00,44.1,42.8,29.97,SSW,198,0.0,1.0,95,0.00,,OVC,0.00,0.00,VWS V14.00,2013-04-24 09:54:00,
2013-04-24 05:59:00,44.1,42.8,29.97,SSW,198,0.0,0.0,95,0.00,,OVC,0.00,0.00,VWS V14.00,2013-04-24 09:59:00,
2013-04-24 06:04:00,44.1,42.8,29.97,SSW,198,0.0,0.0,95,0.00,,OVC,0.00,0.00,VWS V14.00,2013-04-24 10:04:00,
2013-04-24 06:09:00,44.1,42.8,29.97,SSW,198,0.0,0.0,95,0.00,,OVC,0.00,0.00,VWS V14.00,2013-04-24 10:09:00,
2013-04-24 06:14:00,44.0,42.7,29.97,SSW,198,0.0,0.0,95,0.00,,OVC,0.00,0.00,VWS V14.00,2013-04-24 10:14:00,
2013-04-24 06:19:00,44.2,42.9,29.97,SSW,198,0.0,0.0,95,0.00,,OVC,0.00,0.00,VWS V14.00,2013-04-24 10:19:00,
2013-04-24 06:24:00,44.5,43.2,29.97,SSW,198,0.0,0.0,95,0.00,,OVC,0.00,5.00,VWS V14.00,2013-04-24 10:24:00,
2013-04-24 06:29:00,44.9,43.8,29.97,SSW,198,0.0,0.0,96,0.00,,OVC,0.00,7.00,VWS V14.00,2013-04-24 10:29:00,
2013-04-24 06:34:00,45.3,44.2,29.97,SSW,194,0.0,2.0,96,0.00,,OVC,0.00,11.00,VWS V14.00,2013-04-24 10:34:00,
2013-04-24 06:39:00,45.6,44.5,29.96,SSW,194,0.0,2.0,96,0.00,,OVC,0.00,14.00,VWS V14.00,2013-04-24 10:39:00,
2013-04-24 06:45:00,46.0,44.9,29.97,SSW,194,0.0,1.0,96,0.00,,OVC,0.00,18.00,VWS V14.00,2013-04-24 10:45:00,
2013-04-24 06:50:00,46.1,45.0,29.97,SSW,194,0.0,1.0,96,0.00,,OVC,0.00,21.00,VWS V14.00,2013-04-24 10:50:00,
2013-04-24 06:55:00,46.3,45.2,29.97,SSW,194,0.0,1.0,96,0.00,,OVC,0.00,28.00,VWS V14.00,2013-04-24 10:55:00,
2013-04-24 07:00:00,46.4,45.3,29.96,SSW,194,0.0,0.0,96,0.00,,OVC,0.00,28.00,VWS V14.00,2013-04-24 11:00:00,
2013-04-24 07:05:00,46.6,45.5,29.96,SSW,194,0.0,0.0,96,0.00,,OVC,0.00,32.00,VWS V14.00,2013-04-24 11:05:00,
2013-04-24 07:10:00,46.8,45.7,29.96,SSW,194,0.0,0.0,96,0.00,,OVC,0.00,33.00,VWS V14.00,2013-04-24 11:10:00,
2013-04-24 07:15:00,46.9,45.8,29.96,SSW,194,0.0,0.0,96,0.00,,OVC,0.00,37.00,VWS V14.00,2013-04-24 11:15:00,
2013-04-24 07:20:00,47.2,46.1,29.96,SSW,194,1.0,1.0,96,0.00,,OVC,0.00,39.00,VWS V14.00,2013-04-24 11:20:00,
2013-04-24 07:25:00,47.5,46.4,29.96,SSW,207,1.0,3.0,96,0.00,,OVC,0.00,42.00,VWS V14.00,2013-04-24 11:25:00,
2013-04-24 07:30:00,47.7,46.6,29.96,SSW,207,0.0,1.0,96,0.00,,OVC,0.00,44.00,VWS V14.00,2013-04-24 11:30:00,
2013-04-24 07:36:00,48.0,46.9,29.96,SW,218,0.0,2.0,96,0.00,,OVC,0.00,46.00,VWS V14.00,2013-04-24 11:36:00,
2013-04-24 07:41:00,48.3,47.2,29.96,SSW,197,0.0,3.0,96,0.00,,OVC,0.00,47.00,VWS V14.00,2013-04-24 11:41:00,
2013-04-24 07:46:00,48.6,47.5,29.96,SSW,213,0.0,5.0,96,0.00,,OVC,0.00,49.00,VWS V14.00,2013-04-24 11:46:00,
2013-04-24 07:51:00,48.8,47.7,29.96,SSW,206,0.0,5.0,96,0.00,,OVC,0.00,53.00,VWS V14.00,2013-04-24 11:51:00,
2013-04-24 07:56:00,49.1,48.0,29.96,South,175,0.0,6.0,96,0.00,,OVC,0.00,54.00,VWS V14.00,2013-04-24 11:56:00,
2013-04-24 08:01:00,49.5,48.1,29.95,South,183,0.0,5.0,95,0.00,,OVC,0.00,79.00,VWS V14.00,2013-04-24 12:01:00,
2013-04-24 08:06:00,50.0,48.3,29.95,SSW,197,6.0,6.0,94,0.00,,OVC,0.00,65.00,VWS V14.00,2013-04-24 12:06:00,
2013-04-24 08:11:00,50.5,48.3,29.95,South,185,1.0,6.0,92,0.00,,OVC,0.00,63.00,VWS V14.00,2013-04-24 12:11:00,
2013-04-24 08:16:00,50.9,48.4,29.95,SW,221,0.0,5.0,91,0.00,,OVC,0.00,65.00,VWS V14.00,2013-04-24 12:16:00,
2013-04-24 08:22:00,51.3,48.5,29.95,South,172,6.0,6.0,90,0.00,,OVC,0.00,139.00,VWS V14.00,2013-04-24 12:22:00,
2013-04-24 08:27:00,51.8,48.7,29.95,SW,225,1.0,6.0,89,0.00,,OVC,0.00,111.00,VWS V14.00,2013-04-24 12:27:00,
2013-04-24 08:32:00,52.4,49.0,29.95,South,179,1.0,9.0,88,0.00,,OVC,0.00,218.00,VWS V14.00,2013-04-24 12:32:00,
2013-04-24 08:37:00,53.0,49.5,29.95,WSW,239,3.0,9.0,88,0.00,,OVC,0.00,258.00,VWS V14.00,2013-04-24 12:37:00,
2013-04-24 08:42:00,53.6,49.5,29.94,SW,222,0.0,9.0,86,0.00,,OVC,0.00,218.00,VWS V14.00,2013-04-24 12:42:00,
2013-04-24 08:47:00,54.1,49.7,29.95,SSW,201,1.0,8.0,85,0.00,,OVC,0.00,195.00,VWS V14.00,2013-04-24 12:47:00,
2013-04-24 08:52:00,54.6,49.9,29.94,South,171,0.0,8.0,84,0.00,,OVC,0.00,181.00,VWS V14.00,2013-04-24 12:52:00,
2013-04-24 08:57:00,55.1,50.4,29.95,SSW,211,0.0,9.0,84,0.00,,OVC,0.00,169.00,VWS V14.00,2013-04-24 12:57:00,
2013-04-24 09:02:00,55.7,50.6,29.94,South,177,6.0,7.0,83,0.00,,OVC,0.00,179.00,VWS V14.00,2013-04-24 13:02:00,
2013-04-24 09:07:00,56.1,50.7,29.94,SSW,202,5.0,7.0,82,0.00,,OVC,0.00,315.00,VWS V14.00,2013-04-24 13:07:00,
2013-04-24 09:13:00,56.5,50.8,29.94,SSW,193,0.0,7.0,81,0.00,,OVC,0.00,288.00,VWS V14.00,2013-04-24 13:13:00,
2013-04-24 09:18:00,56.7,50.9,29.93,South,189,0.0,11.0,81,0.00,,OVC,0.00,262.00,VWS V14.00,2013-04-24 13:18:00,
2013-04-24 09:23:00,57.0,51.2,29.93,WSW,245,0.0,11.0,81,0.00,,OVC,0.00,482.00,VWS V14.00,2013-04-24 13:23:00,
2013-04-24 09:28:00,57.3,51.2,29.93,SSE,147,2.0,2.0,80,0.00,,OVC,0.00,559.00,VWS V14.00,2013-04-24 13:28:00,
2013-04-24 09:33:00,57.8,51.3,29.93,SSW,198,4.0,6.0,79,0.00,,OVC,0.00,578.00,VWS V14.00,2013-04-24 13:33:00,
2013-04-24 09:38:00,58.0,51.5,29.92,SSW,196,2.0,12.0,79,0.00,,OVC,0.00,598.00,VWS V14.00,2013-04-24 13:38:00,
2013-04-24 09:43:00,58.1,51.6,29.93,SSW,209,6.0,10.0,79,0.00,,OVC,0.00,612.00,VWS V14.00,2013-04-24 13:43:00,
2013-04-24 09:48:00,58.3,51.5,29.93,SSW,204,1.0,10.0,78,0.00,,OVC,0.00,622.00,VWS V14.00,2013-04-24 13:48:00,
2013-04-24 09:53:00,58.7,52.2,29.93,South,178,0.0,11.0,79,0.00,,OVC,0.00,642.00,VWS V14.00,2013-04-24 13:53:00,
2013-04-24 09:58:00,59.3,52.5,29.92,SE,127,0.0,1.0,78,0.00,,OVC,0.00,661.00,VWS V14.00,2013-04-24 13:58:00,
2013-04-24 10:04:00,59.7,52.5,29.92,SE,137,5.0,9.0,77,0.00,,OVC,0.00,677.00,VWS V14.00,2013-04-24 14:04:00,
2013-04-24 10:09:00,60.0,52.4,29.92,SW,216,4.0,9.0,76,0.00,,OVC,0.00,686.00,VWS V14.00,2013-04-24 14:09:00,
2013-04-24 10:14:00,60.4,52.8,29.91,South,175,0.0,9.0,76,0.00,,OVC,0.00,703.00,VWS V14.00,2013-04-24 14:14:00,
2013-04-24 10:19:00,60.8,52.8,29.91,West,264,3.0,13.0,75,0.00,,OVC,0.00,722.00,VWS V14.00,2013-04-24 14:19:00,
2013-04-24 10:24:00,61.3,53.0,29.91,WSW,240,1.0,13.0,74,0.00,,OVC,0.00,740.00,VWS V14.00,2013-04-24 14:24:00,
2013-04-24 10:29:00,61.8,53.8,29.90,SSE,154,7.0,7.0,75,0.00,,OVC,0.00,749.00,VWS V14.00,2013-04-24 14:29:00,
2013-04-24 10:34:00,62.3,53.2,29.90,SW,223,1.0,8.0,72,0.00,,OVC,0.00,756.00,VWS V14.00,2013-04-24 14:34:00,
2013-04-24 10:39:00,62.8,54.0,29.90,SW,230,2.0,8.0,73,0.00,,OVC,0.00,780.00,VWS V14.00,2013-04-24 14:39:00,
2013-04-24 10:44:00,63.4,54.2,29.89,SW,222,0.0,2.0,72,0.00,,OVC,0.00,791.00,VWS V14.00,2013-04-24 14:44:00,
2013-04-24 10:49:00,63.8,53.8,29.89,SW,231,10.0,10.0,70,0.00,,OVC,0.00,796.00,VWS V14.00,2013-04-24 14:49:00,
2013-04-24 10:54:00,63.8,54.2,29.89,SSE,147,8.0,11.0,71,0.00,,OVC,0.00,814.00,VWS V14.00,2013-04-24 14:54:00,
2013-04-24 10:59:00,64.0,54.0,29.89,SW,216,2.0,9.0,70,0.00,,OVC,0.00,831.00,VWS V14.00,2013-04-24 14:59:00,
2013-04-24 11:05:00,64.3,54.3,29.89,South,170,7.0,9.0,70,0.00,,OVC,0.00,844.00,VWS V14.00,2013-04-24 15:05:00,
2013-04-24 11:10:00,64.8,55.2,29.88,WNW,301,1.0,9.0,71,0.00,,OVC,0.00,844.00,VWS V14.00,2013-04-24 15:10:00,
2013-04-24 11:15:00,65.7,55.3,29.89,SSW,203,0.0,7.0,69,0.00,,OVC,0.00,858.00,VWS V14.00,2013-04-24 15:15:00,
2013-04-24 11:20:00,66.0,55.2,29.89,South,169,0.0,7.0,68,0.00,,OVC,0.00,703.00,VWS V14.00,2013-04-24 15:20:00,
2013-04-24 11:25:00,66.1,54.8,29.89,SSW,209,5.0,11.0,67,0.00,,OVC,0.00,499.00,VWS V14.00,2013-04-24 15:25:00,
2013-04-24 11:30:00,65.8,54.5,29.88,SSW,213,1.0,10.0,67,0.00,,OVC,0.00,468.00,VWS V14.00,2013-04-24 15:30:00,
2013-04-24 11:35:00,66.0,56.0,29.87,ENE,59,0.0,10.0,70,0.00,,OVC,0.00,858.00,VWS V14.00,2013-04-24 15:35:00,
2013-04-24 11:40:00,66.0,56.3,29.87,NNW,346,4.0,10.0,71,0.00,,OVC,0.00,898.00,VWS V14.00,2013-04-24 15:40:00,
2013-04-24 11:45:00,65.9,55.8,29.87,NNW,337,1.0,4.0,70,0.00,,OVC,0.00,909.00,VWS V14.00,2013-04-24 15:45:00,
2013-04-24 11:50:00,65.7,56.4,29.87,North,355,0.0,5.0,72,0.00,,OVC,0.00,919.00,VWS V14.00,2013-04-24 15:50:00,
2013-04-24 11:55:00,65.9,56.2,29.87,ENE,60,1.0,5.0,71,0.00,,OVC,0.00,870.00,VWS V14.00,2013-04-24 15:55:00,
2013-04-24 12:00:00,66.4,56.3,29.87,NE,49,0.0,3.0,70,0.00,,OVC,0.00,935.00,VWS V14.00,2013-04-24 16:00:00,
2013-04-24 12:05:00,66.8,56.7,29.86,ESE,108,4.0,6.0,70,0.00,,OVC,0.00,930.00,VWS V14.00,2013-04-24 16:05:00,
2013-04-24 12:11:00,66.8,56.3,29.86,NE,55,1.0,6.0,69,0.00,,OVC,0.00,962.00,VWS V14.00,2013-04-24 16:11:00,
2013-04-24 12:16:00,67.0,56.5,29.85,ESE,106,4.0,5.0,69,0.00,,OVC,0.00,1009.00,VWS V14.00,2013-04-24 16:16:00,
2013-04-24 12:21:00,67.4,56.9,29.85,NE,45,0.0,5.0,69,0.00,,OVC,0.00,693.00,VWS V14.00,2013-04-24 16:21:00,
2013-04-24 12:26:00,67.6,56.7,29.85,East,98,4.0,7.0,68,0.00,,OVC,0.00,817.00,VWS V14.00,2013-04-24 16:26:00,
2013-04-24 12:31:00,67.9,56.5,29.85,East,94,0.0,6.0,67,0.00,,OVC,0.00,800.00,VWS V14.00,2013-04-24 16:31:00,
2013-04-24 12:36:00,68.0,57.1,29.84,NE,53,0.0,6.0,68,0.00,,OVC,0.00,988.00,VWS V14.00,2013-04-24 16:36:00,
2013-04-24 12:41:00,68.2,57.2,29.84,ESE,122,0.0,6.0,68,0.00,,OVC,0.00,974.00,VWS V14.00,2013-04-24 16:41:00,
2013-04-24 12:46:00,68.7,57.3,29.83,ESE,111,5.0,6.0,67,0.00,,OVC,0.00,977.00,VWS V14.00,2013-04-24 16:46:00,
2013-04-24 12:51:00,68.5,57.1,29.83,ESE,103,4.0,7.0,67,0.00,,OVC,0.00,951.00,VWS V14.00,2013-04-24 16:51:00,
2013-04-24 12:56:00,68.8,57.4,29.83,SSE,147,0.0,7.0,67,0.00,,OVC,0.00,970.00,VWS V14.00,2013-04-24 16:56:00,
2013-04-24 13:02:00,69.4,58.0,29.82,ESE,115,5.0,5.0,67,0.00,,OVC,0.00,967.00,VWS V14.00,2013-04-24 17:02:00,
2013-04-24 13:07:00,69.6,57.3,29.82,ENE,60,0.0,7.0,65,0.00,,OVC,0.00,970.00,VWS V14.00,2013-04-24 17:07:00,
2013-04-24 13:12:00,69.3,57.0,29.82,East,87,0.0,7.0,65,0.00,,OVC,0.00,974.00,VWS V14.00,2013-04-24 17:12:00,
2013-04-24 13:17:00,69.2,57.4,29.81,SW,216,0.0,6.0,66,0.00,,OVC,0.00,970.00,VWS V14.00,2013-04-24 17:17:00,
2013-04-24 13:22:00,69.3,57.0,29.80,East,88,3.0,9.0,65,0.00,,OVC,0.00,965.00,VWS V14.00,2013-04-24 17:22:00,
2013-04-24 13:27:00,69.1,57.3,29.80,ESE,107,1.0,9.0,66,0.00,,OVC,0.00,969.00,VWS V14.00,2013-04-24 17:27:00,
2013-04-24 13:32:00,69.3,57.9,29.80,ESE,107,0.0,5.0,67,0.00,,OVC,0.00,967.00,VWS V14.00,2013-04-24 17:32:00,
2013-04-24 13:37:00,69.9,58.0,29.79,ENE,74,0.0,6.0,66,0.00,,OVC,0.00,969.00,VWS V14.00,2013-04-24 17:37:00,
2013-04-24 13:42:00,70.5,57.3,29.79,NE,52,3.0,6.0,63,0.00,,OVC,0.00,946.00,VWS V14.00,2013-04-24 17:42:00,
2013-04-24 13:48:00,70.3,57.1,29.79,SE,146,1.0,9.0,63,0.00,,OVC,0.00,969.00,VWS V14.00,2013-04-24 17:48:00,
2013-04-24 13:53:00,70.0,56.8,29.80,ESE,113,4.0,9.0,63,0.00,,OVC,0.00,907.00,VWS V14.00,2013-04-24 17:53:00,
2013-04-24 13:58:00,70.2,57.0,29.79,SW,214,3.0,11.0,63,0.00,,OVC,0.00,877.00,VWS V14.00,2013-04-24 17:58:00,
2013-04-24 14:03:00,70.1,56.9,29.80,SE,137,5.0,10.0,63,0.00,,OVC,0.00,954.00,VWS V14.00,2013-04-24 18:03:00,
2013-04-24 14:08:00,70.2,57.0,29.79,SSE,161,4.0,10.0,63,0.00,,OVC,0.00,796.00,VWS V14.00,2013-04-24 18:08:00,
2013-04-24 14:13:00,70.4,57.2,29.79,SSE,156,2.0,7.0,63,0.00,,OVC,0.00,990.00,VWS V14.00,2013-04-24 18:13:00,
2013-04-24 14:18:00,70.6,57.4,29.79,SSE,160,7.0,9.0,63,0.00,,OVC,0.00,921.00,VWS V14.00,2013-04-24 18:18:00,
2013-04-24 14:23:00,70.5,57.8,29.79,WSW,252,5.0,11.0,64,0.00,,OVC,0.00,865.00,VWS V14.00,2013-04-24 18:23:00,
2013-04-24 14:28:00,71.0,57.8,29.78,SE,140,0.0,5.0,63,0.00,,OVC,0.00,926.00,VWS V14.00,2013-04-24 18:28:00,
2013-04-24 14:33:00,71.4,57.7,29.78,SSE,157,0.0,12.0,62,0.00,,OVC,0.00,835.00,VWS V14.00,2013-04-24 18:33:00,
2013-04-24 14:39:00,71.6,57.5,29.77,East,96,0.0,12.0,61,0.00,,OVC,0.00,610.00,VWS V14.00,2013-04-24 18:39:00,
2013-04-24 14:44:00,71.2,57.5,29.77,SW,214,0.0,5.0,62,0.00,,OVC,0.00,756.00,VWS V14.00,2013-04-24 18:44:00,
2013-04-24 14:49:00,70.7,57.5,29.77,NE,46,2.0,9.0,63,0.00,,OVC,0.00,466.00,VWS V14.00,2013-04-24 18:49:00,
2013-04-24 14:54:00,70.1,57.4,29.78,SW,225,6.0,10.0,64,0.00,,OVC,0.00,404.00,VWS V14.00,2013-04-24 18:54:00,
2013-04-24 14:59:00,69.6,57.3,29.78,South,169,0.0,0.0,65,0.00,,OVC,0.00,383.00,VWS V14.00,2013-04-24 18:59:00,
2013-04-24 15:04:00,69.6,57.8,29.78,South,179,5.0,6.0,66,0.00,,OVC,0.00,376.00,VWS V14.00,2013-04-24 19:04:00,
2013-04-24 15:09:00,69.9,58.0,29.77,SSW,209,0.0,8.0,66,0.00,,OVC,0.00,949.00,VWS V14.00,2013-04-24 19:09:00,
2013-04-24 15:14:00,70.6,58.3,29.76,SW,232,5.0,5.0,65,0.00,,OVC,0.00,837.00,VWS V14.00,2013-04-24 19:14:00,
2013-04-24 15:19:00,70.9,57.7,29.76,SW,221,4.0,9.0,63,0.00,,OVC,0.00,691.00,VWS V14.00,2013-04-24 19:19:00,
2013-04-24 15:25:00,70.9,58.1,29.76,NNE,15,1.0,9.0,64,0.00,,OVC,0.00,759.00,VWS V14.00,2013-04-24 19:25:00,
2013-04-24 15:30:00,70.5,57.8,29.76,ESE,114,5.0,7.0,64,0.00,,OVC,0.00,626.00,VWS V14.00,2013-04-24 19:30:00,
2013-04-24 15:35:00,70.1,57.4,29.76,ESE,119,2.0,12.0,64,0.00,,OVC,0.00,490.00,VWS V14.00,2013-04-24 19:35:00,
2013-04-24 15:40:00,69.7,57.4,29.76,ENE,65,2.0,12.0,65,0.00,,OVC,0.00,446.00,VWS V14.00,2013-04-24 19:40:00,
2013-04-24 15:45:00,69.3,57.5,29.76,SSE,150,6.0,11.0,66,0.00,,OVC,0.00,308.00,VWS V14.00,2013-04-24 19:45:00,
2013-04-24 15:50:00,69.0,57.6,29.75,SSE,153,2.0,11.0,67,0.00,,OVC,0.00,403.00,VWS V14.00,2013-04-24 19:50:00,
2013-04-24 15:55:00,68.9,57.5,29.75,ESE,116,0.0,11.0,67,0.00,,OVC,0.00,343.00,VWS V14.00,2013-04-24 19:55:00,
2013-04-24 16:00:00,69.0,58.0,29.75,South,171,0.0,5.0,68,0.00,,OVC,0.00,294.00,VWS V14.00,2013-04-24 20:00:00,
2013-04-24 16:05:00,69.2,57.8,29.75,ESE,111,2.0,9.0,67,0.00,,OVC,0.00,338.00,VWS V14.00,2013-04-24 20:05:00,
2013-04-24 16:10:00,68.8,57.4,29.75,ENE,67,0.0,10.0,67,0.00,,OVC,0.00,262.00,VWS V14.00,2013-04-24 20:10:00,
2013-04-24 16:16:00,68.7,57.7,29.74,SE,126,6.0,14.0,68,0.00,,OVC,0.00,181.00,VWS V14.00,2013-04-24 20:16:00,
2013-04-24 16:21:00,68.6,58.0,29.74,South,173,0.0,14.0,69,0.00,,OVC,0.00,185.00,VWS V14.00,2013-04-24 20:21:00,
2013-04-24 16:26:00,69.0,58.0,29.74,SSE,161,10.0,14.0,68,0.00,,OVC,0.00,207.00,VWS V14.00,2013-04-24 20:26:00,
2013-04-24 16:31:00,68.8,57.8,29.74,SE,127,4.0,11.0,68,0.00,,OVC,0.00,167.00,VWS V14.00,2013-04-24 20:31:00,
2013-04-24 16:36:00,68.3,57.8,29.73,East,98,1.0,16.0,69,0.00,,OVC,0.00,185.00,VWS V14.00,2013-04-24 20:36:00,
2013-04-24 16:41:00,68.0,57.9,29.73,SW,236,3.0,16.0,70,0.00,,OVC,0.00,202.00,VWS V14.00,2013-04-24 20:41:00,
2013-04-24 16:46:00,68.1,58.0,29.72,SE,143,2.0,15.0,70,0.00,,OVC,0.00,209.00,VWS V14.00,2013-04-24 20:46:00,
2013-04-24 16:51:00,68.5,57.9,29.72,East,92,0.0,15.0,69,0.00,,OVC,0.00,193.00,VWS V14.00,2013-04-24 20:51:00,
2013-04-24 16:56:00,68.8,58.2,29.72,SSE,148,1.0,15.0,69,0.00,,OVC,0.00,200.00,VWS V14.00,2013-04-24 20:56:00,
2013-04-24 17:02:00,69.0,58.0,29.71,SSE,150,1.0,7.0,68,0.00,,OVC,0.00,163.00,VWS V14.00,2013-04-24 21:02:00,
2013-04-24 17:07:00,68.8,57.8,29.71,East,101,2.0,11.0,68,0.00,,OVC,0.00,155.00,VWS V14.00,2013-04-24 21:07:00,
2013-04-24 17:12:00,68.5,57.5,29.72,SW,218,1.0,11.0,68,0.00,,OVC,0.00,165.00,VWS V14.00,2013-04-24 21:12:00,
2013-04-24 17:17:00,68.3,57.3,29.71,ESE,117,1.0,6.0,68,0.00,,OVC,0.00,165.00,VWS V14.00,2013-04-24 21:17:00,
2013-04-24 17:22:00,68.3,57.8,29.72,SSW,209,0.0,8.0,69,0.00,,OVC,0.00,135.00,VWS V14.00,2013-04-24 21:22:00,
2013-04-24 17:27:00,68.1,57.6,29.71,East,93,1.0,11.0,69,0.00,,OVC,0.00,109.00,VWS V14.00,2013-04-24 21:27:00,
2013-04-24 17:32:00,68.0,57.5,29.70,SSE,148,4.0,10.0,69,0.00,,OVC,0.00,90.00,VWS V14.00,2013-04-24 21:32:00,
2013-04-24 17:37:00,67.8,57.3,29.70,South,186,2.0,10.0,69,0.00,,OVC,0.00,83.00,VWS V14.00,2013-04-24 21:37:00,
2013-04-24 17:42:00,67.7,57.6,29.70,SW,221,5.0,10.0,70,0.00,,OVC,0.00,83.00,VWS V14.00,2013-04-24 21:42:00,
2013-04-24 17:48:00,67.6,57.5,29.69,SE,131,1.0,6.0,70,0.00,,OVC,0.00,95.00,VWS V14.00,2013-04-24 21:48:00,
2013-04-24 17:53:00,67.5,57.0,29.70,SSW,198,4.0,13.0,69,0.00,,OVC,0.00,111.00,VWS V14.00,2013-04-24 21:53:00,
2013-04-24 17:58:00,67.4,57.3,29.70,South,169,4.0,13.0,70,0.00,,OVC,0.00,123.00,VWS V14.00,2013-04-24 21:58:00,
2013-04-24 18:03:00,67.4,57.3,29.70,NE,53,0.0,9.0,70,0.00,,OVC,0.00,120.00,VWS V14.00,2013-04-24 22:03:00,
2013-04-24 18:08:00,67.4,57.3,29.70,SSW,204,0.0,9.0,70,0.00,,OVC,0.00,93.00,VWS V14.00,2013-04-24 22:08:00,
2013-04-24 18:13:00,67.3,57.2,29.69,ESE,121,0.0,0.0,70,0.00,,OVC,0.00,72.00,VWS V14.00,2013-04-24 22:13:00,
2013-04-24 18:18:00,67.2,57.1,29.69,SSE,148,0.0,8.0,70,0.00,,OVC,0.00,60.00,VWS V14.00,2013-04-24 22:18:00,
2013-04-24 18:23:00,67.0,56.9,29.68,East,101,2.0,8.0,70,0.00,,OVC,0.00,54.00,VWS V14.00,2013-04-24 22:23:00,
2013-04-24 18:28:00,66.9,56.8,29.68,ESE,114,2.0,5.0,70,0.00,,OVC,0.00,67.00,VWS V14.00,2013-04-24 22:28:00,
2013-04-24 18:33:00,66.8,57.1,29.68,SW,215,0.0,5.0,71,0.00,,OVC,0.00,91.00,VWS V14.00,2013-04-24 22:33:00,
2013-04-24 18:38:00,66.8,57.1,29.68,South,172,10.0,10.0,71,0.00,,OVC,0.00,83.00,VWS V14.00,2013-04-24 22:38:00,
2013-04-24 18:43:00,66.8,57.1,29.68,SE,144,1.0,4.0,71,0.00,,OVC,0.00,62.00,VWS V14.00,2013-04-24 22:43:00,
2013-04-24 18:49:00,66.8,57.1,29.68,SSW,213,4.0,10.0,71,0.00,,OVC,0.00,63.00,VWS V14.00,2013-04-24 22:49:00,
2013-04-24 18:54:00,66.8,57.1,29.67,South,188,0.0,10.0,71,0.00,,OVC,0.00,70.00,VWS V14.00,2013-04-24 22:54:00,
2013-04-24 18:59:00,66.8,57.1,29.67,South,174,2.0,5.0,71,0.00,,OVC,0.00,74.00,VWS V14.00,2013-04-24 22:59:00,
2013-04-24 19:04:00,66.8,57.1,29.67,South,191,0.0,6.0,71,0.00,,OVC,0.00,70.00,VWS V14.00,2013-04-24 23:04:00,
2013-04-24 19:09:00,66.8,57.1,29.68,ESE,104,2.0,7.0,71,0.00,,OVC,0.00,49.00,VWS V14.00,2013-04-24 23:09:00,
2013-04-24 19:14:00,66.7,57.4,29.68,SSE,163,4.0,7.0,72,0.00,,OVC,0.00,39.00,VWS V14.00,2013-04-24 23:14:00,
2013-04-24 19:19:00,66.6,57.3,29.68,SE,137,0.0,7.0,72,0.00,,OVC,0.00,33.00,VWS V14.00,2013-04-24 23:19:00,
2013-04-24 19:24:00,66.5,57.2,29.69,ESE,116,0.0,7.0,72,0.00,,OVC,0.00,30.00,VWS V14.00,2013-04-24 23:24:00,
2013-04-24 19:29:00,66.4,57.1,29.68,ESE,123,0.0,1.0,72,0.00,,OVC,0.00,23.00,VWS V14.00,2013-04-24 23:29:00,
2013-04-24 19:34:00,66.1,57.2,29.69,South,183,0.0,4.0,73,0.00,,OVC,0.00,16.00,VWS V14.00,2013-04-24 23:34:00,
2013-04-24 19:39:00,65.9,57.0,29.69,SE,128,0.0,4.0,73,0.00,,OVC,0.00,12.00,VWS V14.00,2013-04-24 23:39:00,
2013-04-24 19:44:00,65.6,57.1,29.69,South,178,0.0,2.0,74,0.00,,OVC,0.00,9.00,VWS V14.00,2013-04-24 23:44:00,
2013-04-24 19:50:00,65.4,57.3,29.69,South,186,0.0,3.0,75,0.00,,OVC,0.00,5.00,VWS V14.00,2013-04-24 23:50:00,
2013-04-24 19:55:00,65.1,57.0,29.70,South,186,0.0,3.0,75,0.00,,OVC,0.00,0.00,VWS V14.00,2013-04-24 23:55:00,
2013-04-24 20:00:00,64.9,56.8,29.70,South,186,0.0,0.0,75,0.00,,OVC,0.00,0.00,VWS V14.00,2013-04-25 00:00:00,
2013-04-24 20:05:00,64.7,57.0,29.71,South,186,0.0,0.0,76,0.00,,OVC,0.00,0.00,VWS V14.00,2013-04-25 00:05:00,
2013-04-24 20:10:00,64.5,56.8,29.72,South,186,0.0,2.0,76,0.00,,OVC,0.00,0.00,VWS V14.00,2013-04-25 00:10:00,
2013-04-24 20:15:00,64.2,56.8,29.72,South,186,0.0,0.0,77,0.00,,OVC,0.00,0.00,VWS V14.00,2013-04-25 00:15:00,
2013-04-24 20:20:00,63.9,56.6,29.72,South,186,0.0,0.0,77,0.00,,OVC,0.00,0.00,VWS V14.00,2013-04-25 00:20:00,
2013-04-24 20:25:00,63.8,56.8,29.73,South,186,0.0,0.0,78,0.00,,OVC,0.00,0.00,VWS V14.00,2013-04-25 00:25:00,
2013-04-24 20:30:00,63.5,56.5,29.74,South,186,0.0,0.0,78,0.00,,OVC,0.00,0.00,VWS V14.00,2013-04-25 00:30:00,
2013-04-24 20:35:00,63.2,56.6,29.74,South,186,0.0,0.0,79,0.00,,OVC,0.00,0.00,VWS V14.00,2013-04-25 00:35:00,
2013-04-24 20:40:00,63.0,56.4,29.74,South,186,0.0,1.0,79,0.00,,OVC,0.00,0.00,VWS V14.00,2013-04-25 00:40:00,
2013-04-24 20:46:00,62.8,56.5,29.74,South,186,0.0,0.0,80,0.00,,OVC,0.00,0.00,VWS V14.00,2013-04-25 00:46:00,
2013-04-24 20:51:00,62.7,56.5,29.74,South,186,0.0,0.0,80,0.00,,OVC,0.00,0.00,VWS V14.00,2013-04-25 00:51:00,
2013-04-24 20:56:00,62.6,56.7,29.74,South,186,0.0,0.0,81,0.00,,OVC,0.00,0.00,VWS V14.00,2013-04-25 00:56:00,
2013-04-24 21:01:00,62.5,56.6,29.74,South,186,0.0,0.0,81,0.00,,OVC,0.00,0.00,VWS V14.00,2013-04-25 01:01:00,
2013-04-24 21:06:00,62.5,56.6,29.74,South,186,0.0,0.0,81,0.00,,OVC,0.00,0.00,VWS V14.00,2013-04-25 01:06:00,
2013-04-24 21:11:00,62.3,56.4,29.74,South,186,0.0,0.0,81,0.00,,OVC,0.00,0.00,VWS V14.00,2013-04-25 01:11:00,
2013-04-24 21:16:00,62.2,56.6,29.74,South,186,0.0,0.0,82,0.00,,OVC,0.00,0.00,VWS V14.00,2013-04-25 01:16:00,
2013-04-24 21:21:00,62.3,56.7,29.74,South,186,0.0,0.0,82,0.00,,OVC,0.00,0.00,VWS V14.00,2013-04-25 01:21:00,
2013-04-24 21:26:00,62.3,57.1,29.75,South,186,0.0,0.0,83,0.00,,OVC,0.00,0.00,VWS V14.00,2013-04-25 01:26:00,
2013-04-24 21:31:00,62.3,57.4,29.75,South,186,0.0,1.0,84,0.00,,OVC,0.00,0.00,VWS V14.00,2013-04-25 01:31:00,
2013-04-24 21:37:00,62.4,57.5,29.75,SSE,167,0.0,2.0,84,0.00,,OVC,0.00,0.00,VWS V14.00,2013-04-25 01:37:00,
2013-04-24 21:42:00,62.5,57.6,29.75,SSE,167,0.0,2.0,84,0.00,,OVC,0.00,0.00,VWS V14.00,2013-04-25 01:42:00,
2013-04-24 21:47:00,62.5,57.6,29.75,SSE,167,0.0,0.0,84,0.00,,OVC,0.00,0.00,VWS V14.00,2013-04-25 01:47:00,
2013-04-24 21:52:00,62.7,57.5,29.76,SE,141,0.0,4.0,83,0.00,,OVC,0.00,0.00,VWS V14.00,2013-04-25 01:52:00,
2013-04-24 21:57:00,63.1,56.8,29.76,South,173,2.0,5.0,80,0.00,,OVC,0.00,0.00,VWS V14.00,2013-04-25 01:57:00,
2013-04-24 22:02:00,64.5,56.4,29.75,WSW,247,0.0,3.0,75,0.00,,OVC,0.00,0.00,VWS V14.00,2013-04-25 02:02:00,
2013-04-24 22:07:00,65.8,56.5,29.75,South,184,0.0,5.0,72,0.00,,OVC,0.00,0.00,VWS V14.00,2013-04-25 02:07:00,
2013-04-24 22:12:00,66.8,56.3,29.76,NE,46,0.0,7.0,69,0.00,,OVC,0.00,0.00,VWS V14.00,2013-04-25 02:12:00,
2013-04-24 22:17:00,67.5,56.6,29.76,NE,43,0.0,1.0,68,0.00,,OVC,0.00,0.00,VWS V14.00,2013-04-25 02:17:00,
2013-04-24 22:22:00,68.0,56.7,29.76,WNW,297,2.0,3.0,67,0.00,,OVC,0.00,0.00,VWS V14.00,2013-04-25 02:22:00,
2013-04-24 22:27:00,68.6,56.8,29.75,SW,233,0.0,5.0,66,0.00,,OVC,0.00,0.00,VWS V14.00,2013-04-25 02:27:00,
2013-04-24 22:32:00,68.8,56.6,29.76,SSW,200,2.0,3.0,65,0.00,,OVC,0.00,0.00,VWS V14.00,2013-04-25 02:32:00,
2013-04-24 22:38:00,68.9,56.7,29.76,SW,227,0.0,4.0,65,0.00,,OVC,0.00,0.00,VWS V14.00,2013-04-25 02:38:00,
2013-04-24 22:43:00,68.9,56.7,29.76,WSW,238,0.0,4.0,65,0.00,,OVC,0.00,0.00,VWS V14.00,2013-04-25 02:43:00,
2013-04-24 22:48:00,68.8,56.6,29.77,WSW,238,0.0,1.0,65,0.00,,OVC,0.00,0.00,VWS V14.00,2013-04-25 02:48:00,
2013-04-24 22:53:00,68.7,56.5,29.77,SE,139,0.0,5.0,65,0.00,,OVC,0.00,0.00,VWS V14.00,2013-04-25 02:53:00,
2013-04-24 22:58:00,68.5,56.3,29.77,SSW,196,0.0,0.0,65,0.00,,OVC,0.00,0.00,VWS V14.00,2013-04-25 02:58:00,
2013-04-24 23:03:00,68.5,56.7,29.77,SSW,196,0.0,2.0,66,0.00,,OVC,0.00,0.00,VWS V14.00,2013-04-25 03:03:00,
2013-04-24 23:08:00,68.6,56.8,29.78,SSW,213,0.0,2.0,66,0.00,,OVC,0.00,0.00,VWS V14.00,2013-04-25 03:08:00,
2013-04-24 23:13:00,68.6,56.8,29.78,SSW,213,0.0,0.0,66,0.00,,OVC,0.00,0.00,VWS V14.00,2013-04-25 03:13:00,
2013-04-24 23:18:00,68.5,56.7,29.78,SSW,213,0.0,0.0,66,0.00,,OVC,0.00,0.00,VWS V14.00,2013-04-25 03:18:00,
2013-04-24 23:23:00,68.4,56.6,29.78,SSW,213,0.0,0.0,66,0.00,,OVC,0.00,0.00,VWS V14.00,2013-04-25 03:23:00,
2013-04-24 23:29:00,68.1,56.7,29.78,SSW,213,0.0,0.0,67,0.00,,OVC,0.00,0.00,VWS V14.00,2013-04-25 03:29:00,
2013-04-24 23:34:00,67.8,57.3,29.78,SSW,213,0.0,0.0,69,0.00,,OVC,0.00,0.00,VWS V14.00,2013-04-25 03:34:00,
2013-04-24 23:39:00,67.5,57.4,29.79,SSW,213,0.0,0.0,70,0.00,,OVC,0.00,0.00,VWS V14.00,2013-04-25 03:39:00,
2013-04-24 23:44:00,66.8,57.5,29.81,WSW,249,1.0,7.0,72,0.00,,OVC,0.00,0.00,VWS V14.00,2013-04-25 03:44:00,
2013-04-24 23:49:00,66.4,57.9,29.81,WNW,299,12.0,12.0,74,0.00,,OVC,0.00,0.00,VWS V14.00,2013-04-25 03:49:00,
2013-04-24 23:54:00,66.6,57.7,29.82,SW,236,0.0,19.0,73,0.00,,OVC,0.00,0.00,VWS V14.00,2013-04-25 03:54:00,
2013-04-24 23:59:00,66.3,56.2,29.83,WNW,300,2.0,13.0,70,0.00,,OVC,0.00,0.00,VWS V14.00,2013-04-25 03:59:00,